createdAt,value
2022-09-15T00:01:22.429Z,15.11
2022-09-15T00:03:51.246Z,15.09
2022-09-15T00:06:20.193Z,15.07
2022-09-15T00:08:48.539Z,15.04
2022-09-15T00:11:22.244Z,15.02
2022-09-15T00:13:52.577Z,15.03
2022-09-15T00:16:23.969Z,15.06
2022-09-15T00:18:52.293Z,15.08
2022-09-15T00:21:26.493Z,15.12
2022-09-15T00:23:55.316Z,15.16
2022-09-15T00:26:26.463Z,15.17
2022-09-15T00:28:57.792Z,15.19
2022-09-15T00:31:27.330Z,15.24
2022-09-15T00:34:02.549Z,15.30
2022-09-15T00:36:31.127Z,15.30
2022-09-15T00:38:59.090Z,15.29
2022-09-15T00:41:27.179Z,15.27
2022-09-15T00:44:02.386Z,15.28
2022-09-15T00:46:36.200Z,15.26
2022-09-15T00:49:16.572Z,15.20
2022-09-15T00:51:50.892Z,15.17
2022-09-15T00:54:26.645Z,15.13
2022-09-15T00:56:59.127Z,15.08
2022-09-15T00:59:30.176Z,15.03
2022-09-15T01:02:11.712Z,14.97
2022-09-15T01:04:39.884Z,14.87
2022-09-15T01:07:12.142Z,14.80
2022-09-15T01:09:51.115Z,14.75
2022-09-15T01:12:19.861Z,14.62
2022-09-15T01:14:47.818Z,14.56
2022-09-15T01:17:55.475Z,14.51
2022-09-15T01:20:55.648Z,14.46
2022-09-15T01:23:45.936Z,14.45
2022-09-15T01:26:48.126Z,14.47
2022-09-15T01:29:46.052Z,14.52
2022-09-15T01:32:55.986Z,14.57
2022-09-15T01:35:56.404Z,14.62
2022-09-15T01:38:42.610Z,14.67
2022-09-15T01:41:25.518Z,14.74
2022-09-15T01:44:13.783Z,14.79
2022-09-15T01:46:50.540Z,14.83
2022-09-15T01:49:26.407Z,14.87
2022-09-15T01:52:17.252Z,14.86
2022-09-15T01:54:49.743Z,14.83
2022-09-15T01:57:24.476Z,14.80
2022-09-15T01:59:56.375Z,14.75
2022-09-15T02:02:34.334Z,14.75
2022-09-15T02:05:09.892Z,14.77
2022-09-15T02:07:47.809Z,14.77
2022-09-15T02:10:33.335Z,14.75
2022-09-15T02:13:19.380Z,14.74
2022-09-15T02:15:54.042Z,14.73
2022-09-15T02:18:40.347Z,14.71
2022-09-15T02:21:19.258Z,14.68
2022-09-15T02:23:51.238Z,14.68
2022-09-15T02:26:25.550Z,14.67
2022-09-15T02:29:21.383Z,14.66
2022-09-15T02:31:56.137Z,14.55
2022-09-15T02:34:31.690Z,14.58
2022-09-15T02:37:10.063Z,14.64
2022-09-15T02:39:44.465Z,14.65
2022-09-15T02:42:27.877Z,14.66
2022-09-15T02:45:03.292Z,14.61
2022-09-15T02:47:41.839Z,14.65
2022-09-15T02:50:10.129Z,14.74
2022-09-15T02:52:54.267Z,14.81
2022-09-15T02:55:23.685Z,14.86
2022-09-15T02:58:10.618Z,14.89
2022-09-15T03:00:55.140Z,14.95
2022-09-15T03:03:24.712Z,15.00
2022-09-15T03:06:15.811Z,15.00
2022-09-15T03:09:00.355Z,15.02
2022-09-15T03:11:30.647Z,14.96
2022-09-15T03:14:09.192Z,14.86
2022-09-15T03:16:40.296Z,14.91
2022-09-15T03:19:29.411Z,14.95
2022-09-15T03:21:58.346Z,14.96
2022-09-15T03:24:26.224Z,14.97
2022-09-15T03:27:01.378Z,15.00
2022-09-15T03:29:31.737Z,14.99
2022-09-15T03:31:59.820Z,14.98
2022-09-15T03:34:58.836Z,15.00
2022-09-15T03:37:59.826Z,14.99
2022-09-15T03:40:27.894Z,15.03
2022-09-15T03:42:55.986Z,15.09
2022-09-15T03:45:24.045Z,15.18
2022-09-15T03:47:52.239Z,15.26
2022-09-15T03:50:20.039Z,15.40
2022-09-15T03:52:48.015Z,15.49
2022-09-15T03:55:15.835Z,15.54
2022-09-15T03:57:43.708Z,15.55
2022-09-15T04:00:12.531Z,15.51
2022-09-15T04:02:40.642Z,15.50
2022-09-15T04:05:09.026Z,15.54
2022-09-15T04:07:36.919Z,15.59
2022-09-15T04:10:05.636Z,15.65
2022-09-15T04:12:34.499Z,15.76
2022-09-15T04:15:04.184Z,15.88
2022-09-15T04:17:32.342Z,16.00
2022-09-15T04:20:00.170Z,16.08
2022-09-15T04:22:31.244Z,16.15
2022-09-15T04:24:59.122Z,16.30
2022-09-15T04:27:27.810Z,16.45
2022-09-15T04:29:55.876Z,16.61
2022-09-15T04:32:24.057Z,16.79
2022-09-15T04:34:53.315Z,16.91
2022-09-15T04:37:22.453Z,16.93
2022-09-15T04:39:50.896Z,16.94
2022-09-15T04:42:20.943Z,16.94
2022-09-15T04:44:48.806Z,17.00
2022-09-15T04:47:17.502Z,17.03
2022-09-15T04:49:45.915Z,17.00
2022-09-15T04:52:14.029Z,17.03
2022-09-15T04:54:42.414Z,16.98
2022-09-15T04:57:11.127Z,16.93
2022-09-15T04:59:39.377Z,16.82
2022-09-15T05:02:07.281Z,16.81
2022-09-15T05:04:35.332Z,16.85
2022-09-15T05:07:03.228Z,16.95
2022-09-15T05:09:31.196Z,17.02
2022-09-15T05:11:59.034Z,17.08
2022-09-15T05:14:27.047Z,17.17
2022-09-15T05:16:55.125Z,17.27
2022-09-15T05:19:23.208Z,17.40
2022-09-15T05:21:51.260Z,17.51
2022-09-15T05:24:19.332Z,17.63
2022-09-15T05:26:47.251Z,17.68
2022-09-15T05:29:15.540Z,17.71
2022-09-15T05:31:43.501Z,17.76
2022-09-15T05:34:11.495Z,17.79
2022-09-15T05:36:39.572Z,17.79
2022-09-15T05:39:07.784Z,17.80
2022-09-15T05:41:35.725Z,17.75
2022-09-15T05:44:03.847Z,17.63
2022-09-15T05:46:31.850Z,17.47
2022-09-15T05:48:59.853Z,17.31
2022-09-15T05:51:27.885Z,17.21
2022-09-15T05:53:56.029Z,17.12
2022-09-15T05:56:23.942Z,17.13
2022-09-15T05:58:52.269Z,17.20
2022-09-15T06:01:24.398Z,17.18
2022-09-15T06:03:53.524Z,17.25
2022-09-15T06:06:22.972Z,17.33
2022-09-15T06:08:58.004Z,17.43
2022-09-15T06:11:31.107Z,17.60
2022-09-15T06:14:03.419Z,17.77
2022-09-15T06:16:34.699Z,17.90
2022-09-15T06:19:03.472Z,18.02
2022-09-15T06:21:36.815Z,18.14
2022-09-15T06:24:07.665Z,18.21
2022-09-15T06:26:37.542Z,18.27
2022-09-15T06:29:08.713Z,18.34
2022-09-15T06:31:38.312Z,18.42
2022-09-15T06:34:10.860Z,18.48
2022-09-15T06:36:40.503Z,18.57
2022-09-15T06:41:00.989Z,18.67
2022-09-15T06:42:27.406Z,18.91
2022-09-15T06:44:55.399Z,19.06
2022-09-15T06:47:23.640Z,19.17
2022-09-15T06:49:53.753Z,19.29
2022-09-15T06:52:22.342Z,19.46
2022-09-15T06:54:50.161Z,19.67
2022-09-15T06:57:18.133Z,19.88
2022-09-15T06:59:46.135Z,20.09
2022-09-15T07:02:14.266Z,20.25
2022-09-15T07:04:45.479Z,20.38
2022-09-15T07:08:11.449Z,20.45
2022-09-15T07:10:46.271Z,20.54
2022-09-15T07:13:45.915Z,20.56
2022-09-15T07:16:20.353Z,20.71
2022-09-15T07:19:19.325Z,20.79
2022-09-15T07:23:02.627Z,20.83
2022-09-15T07:26:20.404Z,20.90
2022-09-15T07:29:37.822Z,21.02
2022-09-15T07:32:15.265Z,21.03
2022-09-15T07:34:58.242Z,20.97
2022-09-15T07:37:37.624Z,20.94
2022-09-15T07:40:22.286Z,20.90
2022-09-15T07:43:09.695Z,20.79
2022-09-15T07:46:28.318Z,20.71
2022-09-15T07:49:44.113Z,20.64
2022-09-15T07:52:25.961Z,20.57
2022-09-15T07:55:52.494Z,20.55
2022-09-15T07:58:56.221Z,20.54
2022-09-15T08:01:57.358Z,20.43
2022-09-15T08:04:39.006Z,20.44
2022-09-15T08:07:24.565Z,20.40
2022-09-15T08:10:15.987Z,20.27
2022-09-15T08:12:44.214Z,20.21
2022-09-15T08:15:18.986Z,20.16
2022-09-15T08:17:54.515Z,20.14
2022-09-15T08:20:27.766Z,20.16
2022-09-15T08:23:07.615Z,20.18
2022-09-15T08:25:47.894Z,20.18
2022-09-15T08:28:16.080Z,20.19
2022-09-15T08:30:47.115Z,20.19
2022-09-15T08:33:16.688Z,20.24
2022-09-15T08:35:45.385Z,20.31
2022-09-15T08:39:37.757Z,20.39
2022-09-15T08:42:19.754Z,20.44
2022-09-15T08:45:40.487Z,20.54
2022-09-15T08:52:28.427Z,20.75
2022-09-15T08:55:52.515Z,20.81
2022-09-15T09:06:58.886Z,21.17
2022-09-15T09:09:58.106Z,21.27
2022-09-15T09:13:38.527Z,21.35
2022-09-15T09:17:05.472Z,21.42
2022-09-15T09:20:36.135Z,21.51
2022-09-15T09:26:24.174Z,21.69
2022-09-15T09:26:45.632Z,21.58
2022-09-15T09:29:30.233Z,21.75
2022-09-15T09:32:17.651Z,21.78
2022-09-15T09:35:05.736Z,21.86
2022-09-15T09:37:47.629Z,21.92
2022-09-15T09:40:28.792Z,21.92
2022-09-15T09:43:01.400Z,21.91
2022-09-15T09:45:54.326Z,22.03
2022-09-15T09:48:30.170Z,22.12
2022-09-15T09:51:36.643Z,22.25
2022-09-15T09:54:16.507Z,22.43
2022-09-15T09:56:45.725Z,22.66
2022-09-15T09:59:46.636Z,22.86
2022-09-15T10:02:21.834Z,23.15
2022-09-15T10:04:59.283Z,23.32
2022-09-15T10:07:36.472Z,23.29
2022-09-15T10:10:23.228Z,23.03
2022-09-15T10:12:57.877Z,22.93
2022-09-15T10:15:36.461Z,22.98
2022-09-15T10:18:07.841Z,23.01
2022-09-15T10:20:50.653Z,23.14
2022-09-15T10:23:41.024Z,23.26
2022-09-15T10:26:23.138Z,23.43
2022-09-15T10:29:15.129Z,23.53
2022-09-15T10:31:45.629Z,23.56
2022-09-15T10:34:31.317Z,23.86
2022-09-15T10:37:37.938Z,24.15
2022-09-15T10:40:34.442Z,24.31
2022-09-15T10:43:40.363Z,24.55
2022-09-15T10:46:24.100Z,24.72
2022-09-15T10:49:29.251Z,24.52
2022-09-15T10:52:16.824Z,24.65
2022-09-15T10:55:24.824Z,24.81
2022-09-15T10:58:34.472Z,24.94
2022-09-15T11:01:31.493Z,24.79
2022-09-15T11:04:27.982Z,24.88
2022-09-15T11:08:13.844Z,24.89
2022-09-15T11:11:12.473Z,24.95
2022-09-15T11:14:01.916Z,25.10
2022-09-15T11:16:56.606Z,25.33
2022-09-15T11:20:12.045Z,25.52
2022-09-15T11:22:51.609Z,25.82
2022-09-15T11:25:27.218Z,25.92
2022-09-15T11:28:05.559Z,26.02
2022-09-15T11:30:48.661Z,26.18
2022-09-15T11:33:52.218Z,26.27
2022-09-15T11:36:29.722Z,26.28
2022-09-15T11:39:20.792Z,26.24
2022-09-15T11:43:18.014Z,26.06
2022-09-15T11:46:01.059Z,26.01
2022-09-15T11:50:10.487Z,26.31
2022-09-15T11:53:13.714Z,26.61
2022-09-15T11:55:52.102Z,26.75
2022-09-15T11:58:51.692Z,26.77
2022-09-15T12:01:56.114Z,26.75
2022-09-15T12:04:33.550Z,26.71
2022-09-15T12:07:24.058Z,26.60
2022-09-15T12:09:53.355Z,26.53
2022-09-15T12:12:27.006Z,26.38
2022-09-15T12:14:58.905Z,26.27
2022-09-15T12:17:52.962Z,26.11
2022-09-15T12:20:33.171Z,26.00
2022-09-15T12:23:19.914Z,26.02
2022-09-15T12:26:15.607Z,26.11
2022-09-15T12:28:54.977Z,26.31
2022-09-15T12:31:29.893Z,26.74
2022-09-15T12:34:13.552Z,27.06
2022-09-15T12:36:45.873Z,27.47
2022-09-15T12:39:26.857Z,27.88
2022-09-15T12:42:14.305Z,28.29
2022-09-15T12:44:49.568Z,28.28
2022-09-15T12:47:50.601Z,28.22
2022-09-15T12:50:32.888Z,28.08
2022-09-15T12:53:27.687Z,27.97
2022-09-15T12:56:09.629Z,27.82
2022-09-15T12:58:40.856Z,27.69
2022-09-15T13:01:36.801Z,27.65
2022-09-15T13:04:44.545Z,27.53
2022-09-15T13:07:33.040Z,27.33
2022-09-15T13:10:20.271Z,27.13
2022-09-15T13:12:55.039Z,27.00
2022-09-15T13:15:26.001Z,26.65
2022-09-15T13:17:57.579Z,26.60
2022-09-15T13:20:37.017Z,26.75
2022-09-15T13:23:11.488Z,26.99
2022-09-15T13:25:46.480Z,27.19
2022-09-15T13:28:20.439Z,27.20
2022-09-15T13:32:44.882Z,26.85
2022-09-15T13:39:35.562Z,26.45
2022-09-15T14:01:01.668Z,25.49
2022-09-15T14:07:21.279Z,25.18
2022-09-15T14:13:48.641Z,25.29
2022-09-15T14:16:36.973Z,25.43
2022-09-15T14:26:18.238Z,25.63
2022-09-15T14:28:55.449Z,25.64
2022-09-15T14:31:28.957Z,25.66
2022-09-15T14:33:57.554Z,25.64
2022-09-15T14:36:31.362Z,25.61
2022-09-15T14:39:20.035Z,25.67
2022-09-15T14:41:50.114Z,25.76
2022-09-15T14:47:22.502Z,25.61
2022-09-15T14:50:08.232Z,25.52
2022-09-15T14:52:40.528Z,25.56
2022-09-15T14:55:18.895Z,25.63
2022-09-15T14:57:55.882Z,25.62
2022-09-15T15:00:28.255Z,25.58
2022-09-15T15:03:31.997Z,25.57
2022-09-15T15:09:14.153Z,25.49
2022-09-15T15:11:44.100Z,25.45
2022-09-15T15:14:13.511Z,25.42
2022-09-15T15:16:52.450Z,25.41
2022-09-15T15:19:35.659Z,25.42
2022-09-15T15:22:20.628Z,25.44
2022-09-15T15:24:53.707Z,25.42
2022-09-15T15:27:41.537Z,25.45
2022-09-15T15:30:33.335Z,25.47
2022-09-15T15:33:05.861Z,25.41
2022-09-15T15:35:35.714Z,25.25
2022-09-15T15:38:14.695Z,25.10
2022-09-15T15:40:45.913Z,25.01
2022-09-15T15:43:23.458Z,24.98
2022-09-15T15:45:57.993Z,25.04
2022-09-15T15:48:27.735Z,25.18
2022-09-15T15:50:56.216Z,25.14
2022-09-15T15:53:24.555Z,25.03
2022-09-15T15:55:55.257Z,24.90
2022-09-15T15:58:24.046Z,24.77
2022-09-15T16:00:57.440Z,24.66
2022-09-15T16:03:32.109Z,24.52
2022-09-15T16:06:01.912Z,24.38
2022-09-15T16:08:33.178Z,24.18
2022-09-15T16:11:02.936Z,24.03
2022-09-15T16:13:31.470Z,23.88
2022-09-15T16:16:01.840Z,23.74
2022-09-15T16:18:29.938Z,23.60
2022-09-15T16:20:58.154Z,23.46
2022-09-15T16:23:25.990Z,23.31
2022-09-15T16:25:59.571Z,23.00
2022-09-15T16:28:28.832Z,22.72
2022-09-15T16:30:57.999Z,22.50
2022-09-15T16:33:26.235Z,22.34
2022-09-15T16:36:03.609Z,22.20
2022-09-15T16:38:32.214Z,22.04
2022-09-15T16:41:02.429Z,21.94
2022-09-15T16:44:11.735Z,21.85
2022-09-15T16:47:41.804Z,21.76
2022-09-15T16:51:01.708Z,21.68
2022-09-15T16:54:20.173Z,21.58
2022-09-15T16:57:10.033Z,21.48
2022-09-15T17:00:57.852Z,21.38
2022-09-15T17:03:48.258Z,21.27
2022-09-15T17:06:22.290Z,21.25
2022-09-15T17:08:52.370Z,21.23
2022-09-15T17:11:24.158Z,21.24
2022-09-15T17:13:52.897Z,21.24
2022-09-15T17:16:20.981Z,21.22
2022-09-15T17:18:49.714Z,21.16
2022-09-15T17:21:20.263Z,21.12
2022-09-15T17:23:50.158Z,21.09
2022-09-15T17:26:23.993Z,21.08
2022-09-15T17:28:55.521Z,21.02
2022-09-15T17:31:24.905Z,20.90
2022-09-15T17:33:53.099Z,20.79
2022-09-15T17:36:21.076Z,20.70
2022-09-15T17:38:49.264Z,20.63
2022-09-15T17:41:20.596Z,20.58
2022-09-15T17:43:49.570Z,20.55
2022-09-15T17:46:17.458Z,20.49
2022-09-15T17:48:45.452Z,20.48
2022-09-15T17:51:17.653Z,20.46
2022-09-15T17:53:47.173Z,20.44
2022-09-15T17:56:15.204Z,20.42
2022-09-15T17:58:44.842Z,20.39
2022-09-15T18:01:15.719Z,20.35
2022-09-15T18:03:45.131Z,20.31
2022-09-15T18:06:13.823Z,20.23
2022-09-15T18:08:41.949Z,20.13
2022-09-15T18:11:13.121Z,20.02
2022-09-15T18:13:41.657Z,19.95
2022-09-15T18:16:13.661Z,19.90
2022-09-15T18:18:42.950Z,19.82
2022-09-15T18:21:27.016Z,19.74
2022-09-15T18:23:56.112Z,19.66
2022-09-15T18:26:26.590Z,19.59
2022-09-15T18:28:55.909Z,19.56
2022-09-15T18:31:24.456Z,19.58
2022-09-15T18:33:52.498Z,19.60
2022-09-15T18:36:20.982Z,19.62
2022-09-15T18:38:48.963Z,19.62
2022-09-15T18:41:20.151Z,19.61
2022-09-15T18:43:49.701Z,19.59
2022-09-15T18:46:18.492Z,19.56
2022-09-15T18:48:46.560Z,19.54
2022-09-15T18:51:23.727Z,19.55
2022-09-15T18:53:57.489Z,19.56
2022-09-15T18:56:25.526Z,19.59
2022-09-15T18:58:54.722Z,19.62
2022-09-15T19:01:22.865Z,19.61
2022-09-15T19:03:51.184Z,19.59
2022-09-15T19:06:19.066Z,19.57
2022-09-15T19:08:47.920Z,19.57
2022-09-15T19:11:16.308Z,19.60
2022-09-15T19:13:44.649Z,19.64
2022-09-15T19:16:13.253Z,19.70
2022-09-15T19:18:41.282Z,19.76
2022-09-15T19:21:11.772Z,19.82
2022-09-15T19:23:39.846Z,19.89
2022-09-15T19:26:13.661Z,19.96
2022-09-15T19:28:44.389Z,20.04
2022-09-15T19:31:12.838Z,20.09
2022-09-15T19:33:41.186Z,20.01
2022-09-15T19:36:28.450Z,19.99
2022-09-15T19:38:59.179Z,19.97
2022-09-15T19:41:27.079Z,19.96
2022-09-15T19:43:55.306Z,19.93
2022-09-15T19:46:25.634Z,19.85
2022-09-15T19:48:54.239Z,19.76
2022-09-15T19:51:22.631Z,19.71
2022-09-15T19:53:55.207Z,19.64
2022-09-15T19:56:26.308Z,19.56
2022-09-15T19:58:56.278Z,19.53
2022-09-15T20:01:26.168Z,19.53
2022-09-15T20:03:57.099Z,19.54
2022-09-15T20:06:30.201Z,19.54
2022-09-15T20:09:00.596Z,19.54
2022-09-15T20:11:32.848Z,19.55
2022-09-15T20:14:02.153Z,19.55
2022-09-15T20:16:32.604Z,19.56
2022-09-15T20:19:03.944Z,19.56
2022-09-15T20:21:51.418Z,19.58
2022-09-15T20:24:22.056Z,19.58
2022-09-15T20:26:50.548Z,19.57
2022-09-15T20:29:19.727Z,19.56
2022-09-15T20:31:48.329Z,19.58
2022-09-15T20:34:18.800Z,19.59
2022-09-15T20:36:47.167Z,19.60
2022-09-15T20:39:19.464Z,19.61
2022-09-15T20:41:47.969Z,19.63
2022-09-15T20:44:16.002Z,19.66
2022-09-15T20:46:44.435Z,19.66
2022-09-15T20:49:13.109Z,19.70
2022-09-15T20:51:41.896Z,19.73
2022-09-15T20:54:10.985Z,19.76
2022-09-15T20:56:39.180Z,19.78
2022-09-15T20:59:10.401Z,19.78
2022-09-15T21:01:39.745Z,19.74
2022-09-15T21:04:09.198Z,19.72
2022-09-15T21:06:38.640Z,19.69
2022-09-15T21:09:09.447Z,19.65
2022-09-15T21:11:39.182Z,19.63
2022-09-15T21:14:08.002Z,19.63
2022-09-15T21:16:36.166Z,19.60
2022-09-15T21:19:04.322Z,19.57
2022-09-15T21:21:34.449Z,19.52
2022-09-15T21:24:06.238Z,19.47
2022-09-15T21:26:58.046Z,19.41
2022-09-15T21:29:28.147Z,19.33
2022-09-15T21:31:56.553Z,19.27
2022-09-15T21:34:26.289Z,19.18
2022-09-15T21:36:54.590Z,19.15
2022-09-15T21:39:23.192Z,19.13
2022-09-15T21:41:51.394Z,19.12
2022-09-15T21:44:19.563Z,19.13
2022-09-15T21:46:48.000Z,19.11
2022-09-15T21:49:18.096Z,19.11
2022-09-15T21:51:46.436Z,19.13
2022-09-15T21:54:15.041Z,19.14
2022-09-15T21:56:42.989Z,19.15
2022-09-15T21:59:11.105Z,19.17
2022-09-15T22:01:40.155Z,19.17
2022-09-15T22:04:11.807Z,19.20
2022-09-15T22:06:41.448Z,19.20
2022-09-15T22:09:14.360Z,19.20
2022-09-15T22:11:42.492Z,19.18
2022-09-15T22:14:11.949Z,19.16
2022-09-15T22:16:41.783Z,19.15
2022-09-15T22:19:11.959Z,19.13
2022-09-15T22:21:42.574Z,19.09
2022-09-15T22:24:14.719Z,19.06
2022-09-15T22:26:43.708Z,19.01
2022-09-15T22:29:11.685Z,18.93
2022-09-15T22:31:39.879Z,18.84
2022-09-15T22:34:07.852Z,18.76
2022-09-15T22:36:36.003Z,18.69
2022-09-15T22:39:06.216Z,18.64
2022-09-15T22:41:38.089Z,18.59
2022-09-15T22:44:07.998Z,18.54
2022-09-15T22:46:36.026Z,18.50
2022-09-15T22:49:03.935Z,18.48
2022-09-15T22:51:31.917Z,18.47
2022-09-15T22:54:03.057Z,18.47
2022-09-15T22:56:31.133Z,18.47
2022-09-15T22:59:00.169Z,18.48
2022-09-15T23:01:30.810Z,18.47
2022-09-15T23:04:01.935Z,18.46
2022-09-15T23:06:33.406Z,18.46
2022-09-15T23:09:05.000Z,18.44
2022-09-15T23:11:33.345Z,18.43
2022-09-15T23:14:03.262Z,18.44
2022-09-15T23:16:31.627Z,18.42
2022-09-15T23:18:59.799Z,18.37
2022-09-15T23:21:28.331Z,18.35
2022-09-15T23:23:57.045Z,18.30
2022-09-15T23:26:26.700Z,18.26
2022-09-15T23:28:55.137Z,18.22
2022-09-15T23:31:23.165Z,18.16
2022-09-15T23:33:51.049Z,18.13
2022-09-15T23:36:19.760Z,18.08
2022-09-15T23:38:49.024Z,18.03
2022-09-15T23:41:18.321Z,17.99
2022-09-15T23:43:47.186Z,17.99
2022-09-15T23:46:17.896Z,18.00
2022-09-15T23:48:45.869Z,18.00
2022-09-15T23:51:14.055Z,18.04
2022-09-15T23:53:42.048Z,18.12
2022-09-15T23:56:10.323Z,18.24
2022-09-15T23:58:38.869Z,18.36
